RYR4VN EPKK-LGRP
Flight info
| Callsign | RYR4VN |
|---|---|
| Flight time | 2h 25m |
| Altitude | 23000 |
| Route | REGTO T195 RAZEC/N0438F350 DCT KEKED DCT PERIT/N0438F370 DCT NARKA DCT LOMOS DCT NIKTI DCT MES UN139 LURUS UL995 CODIC |
| Aircraft | B738/M-SDE2E3FGHIRWXY/LB1 |
Departure
| Time | 2026-05-07 15:09 |
|---|---|
| Airport | Kraków John Paul II International Airport (EPKK) |
Arrival
| Time | 2026-05-07 17:34 |
|---|---|
| Airport | Rhodes International Airport "Diagoras" (LGRP) |
| Time | Latitude | Longitude | Altitude | Speed | Heading |
|---|---|---|---|---|---|
| 2026-05-07 14:41 | 50.07487 | 19.80139 | 799 ft | 0 kts | 168° |
| 2026-05-07 15:05 | 50.07481 | 19.80140 | 799 ft | 1 kts | 168° |
| 2026-05-07 15:05 | 50.07475 | 19.80143 | 799 ft | 2 kts | 168° |
| 2026-05-07 15:06 | 50.07431 | 19.80171 | 799 ft | 10 kts | 131° |
| 2026-05-07 15:06 | 50.07434 | 19.80277 | 799 ft | 10 kts | 77° |
| 2026-05-07 15:06 | 50.07466 | 19.80374 | 799 ft | 11 kts | 28° |
| 2026-05-07 15:06 | 50.07540 | 19.80413 | 799 ft | 12 kts | 16° |
| 2026-05-07 15:07 | 50.07625 | 19.80411 | 799 ft | 13 kts | 346° |
| 2026-05-07 15:07 | 50.07718 | 19.80379 | 799 ft | 14 kts | 348° |
| 2026-05-07 15:07 | 50.07820 | 19.80346 | 799 ft | 16 kts | 348° |
| 2026-05-07 15:07 | 50.07925 | 19.80312 | 799 ft | 15 kts | 348° |
| 2026-05-07 15:08 | 50.07991 | 19.80290 | 799 ft | 13 kts | 347° |
| 2026-05-07 15:08 | 50.08008 | 19.80169 | 799 ft | 13 kts | 259° |
| 2026-05-07 15:08 | 50.07941 | 19.79697 | 800 ft | 82 kts | 257° |
| 2026-05-07 15:08 | 50.07773 | 19.78478 | 800 ft | 146 kts | 258° |
| 2026-05-07 15:09 | 50.07527 | 19.76688 | 1059 ft | 180 kts | 257° |
| 2026-05-07 15:09 | 50.07279 | 19.74820 | 2149 ft | 168 kts | 258° |
| 2026-05-07 15:09 | 50.07027 | 19.73050 | 3115 ft | 171 kts | 257° |
| 2026-05-07 15:09 | 50.06737 | 19.71182 | 3838 ft | 185 kts | 256° |
| 2026-05-07 15:10 | 50.06439 | 19.69152 | 4331 ft | 200 kts | 257° |
| 2026-05-07 15:10 | 50.05823 | 19.67080 | 4554 ft | 227 kts | 228° |
| 2026-05-07 15:10 | 50.04547 | 19.65560 | 5181 ft | 237 kts | 211° |
| 2026-05-07 15:10 | 50.02895 | 19.64793 | 5591 ft | 263 kts | 180° |
| 2026-05-07 15:11 | 50.01055 | 19.65256 | 6440 ft | 270 kts | 170° |
| 2026-05-07 15:11 | 49.99218 | 19.65904 | 7318 ft | 272 kts | 169° |
| 2026-05-07 15:11 | 49.97366 | 19.66568 | 8190 ft | 274 kts | 169° |
| 2026-05-07 15:11 | 49.95493 | 19.67225 | 9046 ft | 278 kts | 170° |
| 2026-05-07 15:12 | 49.93596 | 19.67875 | 9900 ft | 281 kts | 170° |
| 2026-05-07 15:12 | 49.91657 | 19.68531 | 10468 ft | 294 kts | 170° |
| 2026-05-07 15:12 | 49.89576 | 19.69241 | 10678 ft | 319 kts | 167° |
| 2026-05-07 15:12 | 49.87535 | 19.70791 | 11220 ft | 335 kts | 144° |
| 2026-05-07 15:13 | 49.85939 | 19.73472 | 12012 ft | 342 kts | 130° |
| 2026-05-07 15:13 | 49.84507 | 19.76432 | 12813 ft | 345 kts | 129° |
| 2026-05-07 15:13 | 49.83082 | 19.79455 | 13599 ft | 349 kts | 129° |
| 2026-05-07 15:13 | 49.81641 | 19.82504 | 14303 ft | 352 kts | 129° |
| 2026-05-07 15:14 | 49.80182 | 19.85566 | 15024 ft | 354 kts | 130° |
| 2026-05-07 15:14 | 49.78726 | 19.88594 | 15734 ft | 357 kts | 130° |
| 2026-05-07 15:14 | 49.77212 | 19.91722 | 16429 ft | 360 kts | 130° |
| 2026-05-07 15:14 | 49.75719 | 19.94796 | 17071 ft | 364 kts | 130° |
| 2026-05-07 15:15 | 49.74187 | 19.97945 | 17709 ft | 369 kts | 131° |
| 2026-05-07 15:15 | 49.72637 | 20.01126 | 18363 ft | 372 kts | 131° |
| 2026-05-07 15:15 | 49.71074 | 20.04326 | 18971 ft | 374 kts | 131° |
| 2026-05-07 15:15 | 49.69499 | 20.07549 | 19572 ft | 377 kts | 131° |
| 2026-05-07 15:16 | 49.67912 | 20.10792 | 20150 ft | 380 kts | 131° |
| 2026-05-07 15:16 | 49.66309 | 20.14066 | 20716 ft | 383 kts | 131° |
| 2026-05-07 15:16 | 49.64693 | 20.17362 | 21316 ft | 387 kts | 131° |
| 2026-05-07 15:16 | 49.63061 | 20.20688 | 21887 ft | 390 kts | 131° |
| 2026-05-07 15:17 | 49.61416 | 20.24039 | 22428 ft | 394 kts | 131° |
| 2026-05-07 15:17 | 49.59756 | 20.27415 | 22963 ft | 397 kts | 131° |
| 2026-05-07 15:17 | 49.58082 | 20.30816 | 23494 ft | 400 kts | 131° |
| 2026-05-07 15:17 | 49.56399 | 20.34234 | 23929 ft | 402 kts | 131° |
| 2026-05-07 15:18 | 49.54696 | 20.37685 | 24331 ft | 406 kts | 131° |
| 2026-05-07 15:18 | 49.52984 | 20.41151 | 24720 ft | 409 kts | 132° |
| 2026-05-07 15:18 | 49.51254 | 20.44650 | 25147 ft | 412 kts | 132° |
| 2026-05-07 15:18 | 49.49509 | 20.48173 | 25556 ft | 415 kts | 132° |
| 2026-05-07 15:19 | 49.47755 | 20.51709 | 25933 ft | 418 kts | 132° |
| 2026-05-07 15:19 | 49.45983 | 20.55279 | 26337 ft | 421 kts | 132° |
| 2026-05-07 15:19 | 49.44203 | 20.58863 | 26747 ft | 423 kts | 132° |
| 2026-05-07 15:19 | 49.42410 | 20.62465 | 27132 ft | 426 kts | 132° |
| 2026-05-07 15:20 | 49.40600 | 20.66086 | 27496 ft | 428 kts | 133° |
| 2026-05-07 15:20 | 49.38646 | 20.69524 | 27850 ft | 428 kts | 139° |
| 2026-05-07 15:20 | 49.36521 | 20.72727 | 28221 ft | 429 kts | 141° |
| 2026-05-07 15:20 | 49.34336 | 20.75851 | 28572 ft | 431 kts | 142° |
| 2026-05-07 15:21 | 49.32130 | 20.78996 | 28883 ft | 435 kts | 141° |
| 2026-05-07 15:21 | 49.29923 | 20.82186 | 29222 ft | 438 kts | 141° |
| 2026-05-07 15:21 | 49.27747 | 20.85378 | 29563 ft | 440 kts | 141° |
| 2026-05-07 15:21 | 49.25536 | 20.88651 | 29882 ft | 443 kts | 141° |
| 2026-05-07 15:22 | 49.23320 | 20.91944 | 30175 ft | 445 kts | 141° |
| 2026-05-07 15:22 | 49.21069 | 20.95292 | 30457 ft | 447 kts | 141° |
| 2026-05-07 15:22 | 49.18833 | 20.98611 | 30743 ft | 448 kts | 141° |
| 2026-05-07 15:22 | 49.16594 | 21.01923 | 31064 ft | 449 kts | 141° |
| 2026-05-07 15:23 | 49.14319 | 21.05171 | 31460 ft | 444 kts | 146° |
| 2026-05-07 15:23 | 49.11839 | 21.07764 | 31865 ft | 435 kts | 156° |
| 2026-05-07 15:23 | 49.09137 | 21.09736 | 32278 ft | 427 kts | 163° |
| 2026-05-07 15:23 | 49.06317 | 21.11025 | 32604 ft | 421 kts | 172° |
| 2026-05-07 15:24 | 49.03454 | 21.11979 | 32911 ft | 421 kts | 172° |
| 2026-05-07 15:24 | 49.00596 | 21.12906 | 33296 ft | 419 kts | 172° |
| 2026-05-07 15:24 | 48.97753 | 21.13831 | 33726 ft | 416 kts | 172° |
| 2026-05-07 15:24 | 48.94930 | 21.14763 | 34090 ft | 415 kts | 172° |
| 2026-05-07 15:25 | 48.92110 | 21.15704 | 34342 ft | 415 kts | 172° |
| 2026-05-07 15:25 | 48.89288 | 21.16653 | 34564 ft | 416 kts | 172° |
| 2026-05-07 15:25 | 48.86463 | 21.17607 | 34818 ft | 416 kts | 172° |
| 2026-05-07 15:25 | 48.83646 | 21.18561 | 35096 ft | 415 kts | 172° |
| 2026-05-07 15:26 | 48.80828 | 21.19514 | 35347 ft | 414 kts | 172° |
| 2026-05-07 15:26 | 48.78011 | 21.20466 | 35559 ft | 415 kts | 172° |
| 2026-05-07 15:26 | 48.75197 | 21.21415 | 35789 ft | 415 kts | 172° |
| 2026-05-07 15:26 | 48.72380 | 21.22365 | 36022 ft | 414 kts | 172° |
| 2026-05-07 15:27 | 48.69562 | 21.23313 | 36215 ft | 415 kts | 172° |
| 2026-05-07 15:27 | 48.66747 | 21.24259 | 36426 ft | 415 kts | 172° |
| 2026-05-07 15:27 | 48.63929 | 21.25205 | 36653 ft | 415 kts | 172° |
| 2026-05-07 15:27 | 48.61114 | 21.26150 | 36871 ft | 414 kts | 172° |
| 2026-05-07 15:28 | 48.55472 | 21.28039 | 36959 ft | 416 kts | 172° |
| 2026-05-07 15:28 | 48.49846 | 21.30126 | 36973 ft | 417 kts | 168° |
| 2026-05-07 15:29 | 48.44293 | 21.32678 | 36966 ft | 417 kts | 167° |
| 2026-05-07 15:29 | 48.38756 | 21.35261 | 36974 ft | 416 kts | 167° |
| 2026-05-07 15:30 | 48.33225 | 21.37804 | 36975 ft | 415 kts | 167° |
| 2026-05-07 15:30 | 48.27728 | 21.40307 | 36986 ft | 415 kts | 168° |
| 2026-05-07 15:31 | 48.22189 | 21.42818 | 36986 ft | 416 kts | 168° |
| 2026-05-07 15:31 | 48.16645 | 21.45325 | 36993 ft | 417 kts | 168° |
| 2026-05-07 15:32 | 48.11081 | 21.47836 | 36994 ft | 418 kts | 168° |
| 2026-05-07 15:32 | 48.05508 | 21.50345 | 36996 ft | 419 kts | 168° |
| 2026-05-07 15:33 | 47.99920 | 21.52857 | 36996 ft | 419 kts | 168° |
| 2026-05-07 15:33 | 47.94326 | 21.55365 | 36992 ft | 420 kts | 168° |
| 2026-05-07 15:34 | 47.88726 | 21.57871 | 36995 ft | 420 kts | 168° |
| 2026-05-07 15:34 | 47.83122 | 21.60374 | 36997 ft | 421 kts | 167° |
| 2026-05-07 15:35 | 47.77517 | 21.62865 | 37001 ft | 421 kts | 168° |
| 2026-05-07 15:35 | 47.71904 | 21.65346 | 37016 ft | 421 kts | 168° |
| 2026-05-07 15:36 | 47.66299 | 21.67818 | 37019 ft | 420 kts | 168° |
| 2026-05-07 15:36 | 47.60690 | 21.70289 | 37019 ft | 420 kts | 168° |
| 2026-05-07 15:37 | 47.55085 | 21.72753 | 37022 ft | 420 kts | 168° |
| 2026-05-07 15:37 | 47.49488 | 21.75208 | 37019 ft | 420 kts | 168° |
| 2026-05-07 15:38 | 47.43892 | 21.77658 | 37018 ft | 419 kts | 168° |
| 2026-05-07 15:38 | 47.38297 | 21.80102 | 37029 ft | 419 kts | 168° |
| 2026-05-07 15:39 | 47.32697 | 21.82542 | 37011 ft | 420 kts | 168° |
| 2026-05-07 15:39 | 47.27096 | 21.84977 | 37015 ft | 420 kts | 168° |
| 2026-05-07 15:40 | 47.21494 | 21.87407 | 37019 ft | 420 kts | 168° |
| 2026-05-07 15:40 | 47.15891 | 21.89833 | 37019 ft | 420 kts | 168° |
| 2026-05-07 15:41 | 47.10279 | 21.92257 | 37017 ft | 420 kts | 168° |
| 2026-05-07 15:41 | 47.04661 | 21.94678 | 37018 ft | 421 kts | 168° |
| 2026-05-07 15:42 | 46.99073 | 21.97082 | 37020 ft | 421 kts | 168° |
| 2026-05-07 15:42 | 46.93437 | 21.99500 | 37033 ft | 423 kts | 168° |
| 2026-05-07 15:43 | 46.87778 | 22.01922 | 37013 ft | 425 kts | 168° |
| 2026-05-07 15:43 | 46.82108 | 22.04345 | 37020 ft | 424 kts | 168° |
| 2026-05-07 15:44 | 46.76449 | 22.06759 | 37030 ft | 424 kts | 168° |
| 2026-05-07 15:44 | 46.70789 | 22.09166 | 37029 ft | 423 kts | 168° |
| 2026-05-07 15:45 | 46.65137 | 22.11565 | 37037 ft | 423 kts | 168° |
| 2026-05-07 15:45 | 46.59488 | 22.13958 | 37028 ft | 423 kts | 168° |
| 2026-05-07 15:46 | 46.51000 | 22.17542 | 37027 ft | 424 kts | 168° |
| 2026-05-07 15:47 | 46.45334 | 22.19929 | 37032 ft | 424 kts | 168° |
| 2026-05-07 15:47 | 46.39670 | 22.22310 | 37031 ft | 424 kts | 168° |
| 2026-05-07 15:48 | 46.34004 | 22.24686 | 37037 ft | 424 kts | 168° |
| 2026-05-07 15:48 | 46.28338 | 22.27057 | 37032 ft | 424 kts | 168° |
| 2026-05-07 15:49 | 46.22670 | 22.29424 | 37036 ft | 424 kts | 168° |
| 2026-05-07 15:49 | 46.16999 | 22.31787 | 37027 ft | 424 kts | 168° |
| 2026-05-07 15:50 | 46.11335 | 22.34143 | 37032 ft | 424 kts | 168° |
| 2026-05-07 15:50 | 46.05667 | 22.36494 | 37025 ft | 424 kts | 168° |
| 2026-05-07 15:51 | 45.99995 | 22.38842 | 37031 ft | 424 kts | 168° |
| 2026-05-07 15:51 | 45.94321 | 22.41186 | 37030 ft | 424 kts | 168° |
| 2026-05-07 15:52 | 45.88645 | 22.43527 | 37041 ft | 425 kts | 168° |
| 2026-05-07 15:52 | 45.82952 | 22.45868 | 37038 ft | 426 kts | 168° |
| 2026-05-07 15:53 | 45.77252 | 22.48207 | 37043 ft | 427 kts | 168° |
| 2026-05-07 15:53 | 45.72504 | 22.50153 | 37037 ft | 428 kts | 168° |
| 2026-05-07 15:54 | 45.66786 | 22.52492 | 37052 ft | 427 kts | 168° |
| 2026-05-07 15:54 | 45.61065 | 22.54826 | 37051 ft | 428 kts | 168° |
| 2026-05-07 15:55 | 45.55332 | 22.57160 | 37057 ft | 429 kts | 168° |
| 2026-05-07 15:55 | 45.49593 | 22.59492 | 37055 ft | 429 kts | 168° |
| 2026-05-07 15:56 | 45.43843 | 22.61823 | 37061 ft | 430 kts | 168° |
| 2026-05-07 15:56 | 45.38093 | 22.64150 | 37067 ft | 429 kts | 168° |
| 2026-05-07 15:57 | 45.32350 | 22.66469 | 37063 ft | 429 kts | 168° |
| 2026-05-07 15:57 | 45.26611 | 22.68782 | 37060 ft | 428 kts | 168° |
| 2026-05-07 15:58 | 45.20885 | 22.71084 | 37074 ft | 428 kts | 168° |
| 2026-05-07 15:58 | 45.15159 | 22.73381 | 37071 ft | 427 kts | 168° |
| 2026-05-07 15:59 | 45.09438 | 22.75672 | 37071 ft | 426 kts | 168° |
| 2026-05-07 15:59 | 45.03735 | 22.77951 | 37071 ft | 426 kts | 168° |
| 2026-05-07 16:00 | 44.98041 | 22.80221 | 37075 ft | 425 kts | 168° |
| 2026-05-07 16:00 | 44.92345 | 22.82486 | 37066 ft | 426 kts | 168° |
| 2026-05-07 16:01 | 44.86636 | 22.84752 | 37054 ft | 427 kts | 168° |
| 2026-05-07 16:01 | 44.80967 | 22.86999 | 37057 ft | 426 kts | 168° |
| 2026-05-07 16:02 | 44.75264 | 22.89255 | 37055 ft | 425 kts | 168° |
| 2026-05-07 16:02 | 44.69565 | 22.91503 | 37065 ft | 425 kts | 168° |
| 2026-05-07 16:03 | 44.63869 | 22.93747 | 37060 ft | 425 kts | 168° |
| 2026-05-07 16:03 | 44.58171 | 22.95986 | 37060 ft | 425 kts | 168° |
| 2026-05-07 16:04 | 44.52469 | 22.98222 | 37064 ft | 426 kts | 168° |
| 2026-05-07 16:04 | 44.46754 | 23.00459 | 37059 ft | 427 kts | 168° |
| 2026-05-07 16:05 | 44.41062 | 23.02682 | 37057 ft | 429 kts | 168° |
| 2026-05-07 16:05 | 44.35299 | 23.04928 | 37045 ft | 431 kts | 168° |
| 2026-05-07 16:06 | 44.29535 | 23.07172 | 37064 ft | 429 kts | 168° |
| 2026-05-07 16:06 | 44.23785 | 23.09405 | 37052 ft | 428 kts | 168° |
| 2026-05-07 16:07 | 44.18049 | 23.11628 | 37048 ft | 428 kts | 168° |
| 2026-05-07 16:07 | 44.12322 | 23.13843 | 37050 ft | 427 kts | 168° |
| 2026-05-07 16:08 | 44.06588 | 23.16055 | 37055 ft | 428 kts | 168° |
| 2026-05-07 16:08 | 44.00842 | 23.18268 | 37054 ft | 429 kts | 168° |
| 2026-05-07 16:09 | 43.95080 | 23.20483 | 37055 ft | 431 kts | 168° |
| 2026-05-07 16:09 | 43.89292 | 23.22704 | 37057 ft | 433 kts | 168° |
| 2026-05-07 16:10 | 43.83470 | 23.24933 | 37054 ft | 435 kts | 168° |
| 2026-05-07 16:10 | 43.77625 | 23.27218 | 37052 ft | 438 kts | 168° |
| 2026-05-07 16:11 | 43.71798 | 23.29530 | 37052 ft | 439 kts | 168° |
| 2026-05-07 16:11 | 43.65910 | 23.31861 | 37050 ft | 440 kts | 168° |
| 2026-05-07 16:12 | 43.60015 | 23.34184 | 37066 ft | 441 kts | 168° |
| 2026-05-07 16:12 | 43.54113 | 23.36502 | 37050 ft | 441 kts | 168° |
| 2026-05-07 16:13 | 43.48217 | 23.38813 | 37061 ft | 440 kts | 168° |
| 2026-05-07 16:13 | 43.42326 | 23.41117 | 37058 ft | 440 kts | 168° |
| 2026-05-07 16:14 | 43.36440 | 23.43415 | 37064 ft | 439 kts | 168° |
| 2026-05-07 16:14 | 43.30563 | 23.45704 | 37069 ft | 439 kts | 168° |
| 2026-05-07 16:15 | 43.24694 | 23.47985 | 37067 ft | 438 kts | 168° |
| 2026-05-07 16:15 | 43.18840 | 23.50256 | 37070 ft | 437 kts | 168° |
| 2026-05-07 16:16 | 43.12980 | 23.52525 | 37071 ft | 438 kts | 168° |
| 2026-05-07 16:16 | 43.07113 | 23.54792 | 37076 ft | 438 kts | 168° |
| 2026-05-07 16:17 | 43.01249 | 23.57053 | 37072 ft | 439 kts | 168° |
| 2026-05-07 16:17 | 42.95369 | 23.59316 | 37084 ft | 440 kts | 168° |
| 2026-05-07 16:18 | 42.89474 | 23.61580 | 37085 ft | 440 kts | 168° |
| 2026-05-07 16:18 | 42.83562 | 23.63846 | 37094 ft | 442 kts | 168° |
| 2026-05-07 16:19 | 42.77679 | 23.66097 | 37107 ft | 443 kts | 168° |
| 2026-05-07 16:19 | 42.71732 | 23.68367 | 37098 ft | 444 kts | 168° |
| 2026-05-07 16:20 | 42.65773 | 23.70639 | 37102 ft | 445 kts | 168° |
| 2026-05-07 16:20 | 42.59813 | 23.72905 | 37091 ft | 446 kts | 168° |
| 2026-05-07 16:21 | 42.53829 | 23.75177 | 37111 ft | 446 kts | 168° |
| 2026-05-07 16:21 | 42.47833 | 23.77448 | 37086 ft | 447 kts | 168° |
| 2026-05-07 16:22 | 42.41850 | 23.79711 | 37088 ft | 446 kts | 168° |
| 2026-05-07 16:22 | 42.35869 | 23.81968 | 37092 ft | 446 kts | 168° |
| 2026-05-07 16:23 | 42.29887 | 23.84220 | 37095 ft | 446 kts | 168° |
| 2026-05-07 16:23 | 42.23910 | 23.86466 | 37105 ft | 446 kts | 168° |
| 2026-05-07 16:24 | 42.17930 | 23.88709 | 37086 ft | 446 kts | 168° |
| 2026-05-07 16:24 | 42.11948 | 23.90949 | 37106 ft | 445 kts | 168° |
| 2026-05-07 16:25 | 42.05977 | 23.93180 | 37112 ft | 445 kts | 168° |
| 2026-05-07 16:25 | 42.00000 | 23.95408 | 37111 ft | 446 kts | 168° |
| 2026-05-07 16:26 | 41.94015 | 23.97634 | 37112 ft | 447 kts | 168° |
| 2026-05-07 16:26 | 41.88005 | 23.99867 | 37117 ft | 449 kts | 168° |
| 2026-05-07 16:27 | 41.81974 | 24.02103 | 37118 ft | 450 kts | 168° |
| 2026-05-07 16:27 | 41.75921 | 24.04343 | 37117 ft | 452 kts | 168° |
| 2026-05-07 16:28 | 41.69856 | 24.06583 | 37116 ft | 453 kts | 168° |
| 2026-05-07 16:28 | 41.63778 | 24.08824 | 37128 ft | 453 kts | 168° |
| 2026-05-07 16:29 | 41.57686 | 24.11065 | 37118 ft | 454 kts | 168° |
| 2026-05-07 16:29 | 41.51666 | 24.13672 | 37124 ft | 457 kts | 161° |
| 2026-05-07 16:30 | 41.45816 | 24.17030 | 37118 ft | 458 kts | 159° |
| 2026-05-07 16:30 | 41.39988 | 24.20456 | 37115 ft | 458 kts | 160° |
| 2026-05-07 16:31 | 41.34141 | 24.23829 | 37109 ft | 458 kts | 160° |
| 2026-05-07 16:31 | 41.28287 | 24.27157 | 37109 ft | 457 kts | 160° |
| 2026-05-07 16:32 | 41.22434 | 24.30464 | 37111 ft | 457 kts | 160° |
| 2026-05-07 16:32 | 41.16578 | 24.33766 | 37099 ft | 457 kts | 160° |
| 2026-05-07 16:33 | 41.10750 | 24.37047 | 37096 ft | 458 kts | 160° |
| 2026-05-07 16:33 | 41.04875 | 24.40349 | 37078 ft | 459 kts | 160° |
| 2026-05-07 16:34 | 40.98995 | 24.43648 | 37079 ft | 459 kts | 160° |
| 2026-05-07 16:34 | 40.93109 | 24.46945 | 37080 ft | 460 kts | 160° |
| 2026-05-07 16:35 | 40.87218 | 24.50237 | 37076 ft | 460 kts | 160° |
| 2026-05-07 16:35 | 40.81321 | 24.53526 | 37076 ft | 460 kts | 160° |
| 2026-05-07 16:36 | 40.75416 | 24.56814 | 37082 ft | 461 kts | 160° |
| 2026-05-07 16:36 | 40.69499 | 24.60101 | 37088 ft | 462 kts | 160° |
| 2026-05-07 16:37 | 40.63575 | 24.63386 | 37086 ft | 462 kts | 160° |
| 2026-05-07 16:37 | 40.57651 | 24.66665 | 37100 ft | 462 kts | 160° |
| 2026-05-07 16:38 | 40.51715 | 24.69945 | 37108 ft | 463 kts | 160° |
| 2026-05-07 16:38 | 40.45768 | 24.73223 | 37103 ft | 464 kts | 160° |
| 2026-05-07 16:39 | 40.39807 | 24.76504 | 37106 ft | 465 kts | 160° |
| 2026-05-07 16:39 | 40.33836 | 24.79783 | 37101 ft | 465 kts | 160° |
| 2026-05-07 16:40 | 40.27855 | 24.83062 | 37104 ft | 466 kts | 160° |
| 2026-05-07 16:40 | 40.21914 | 24.86313 | 37101 ft | 466 kts | 160° |
| 2026-05-07 16:41 | 40.15926 | 24.89583 | 37107 ft | 466 kts | 160° |
| 2026-05-07 16:41 | 40.09935 | 24.92848 | 37103 ft | 466 kts | 160° |
| 2026-05-07 16:42 | 40.04908 | 24.95583 | 37110 ft | 466 kts | 160° |
| 2026-05-07 16:42 | 39.98956 | 24.98816 | 37105 ft | 467 kts | 160° |
| 2026-05-07 16:43 | 39.92968 | 25.02062 | 37109 ft | 467 kts | 160° |
| 2026-05-07 16:43 | 39.86977 | 25.05303 | 37104 ft | 467 kts | 160° |
| 2026-05-07 16:44 | 39.80981 | 25.08541 | 37107 ft | 467 kts | 160° |
| 2026-05-07 16:44 | 39.74976 | 25.11778 | 37105 ft | 467 kts | 160° |
| 2026-05-07 16:45 | 39.68972 | 25.15008 | 37109 ft | 467 kts | 160° |
| 2026-05-07 16:45 | 39.62962 | 25.18236 | 37110 ft | 467 kts | 160° |
| 2026-05-07 16:46 | 39.56993 | 25.21435 | 37115 ft | 467 kts | 160° |
| 2026-05-07 16:46 | 39.50974 | 25.24655 | 37113 ft | 468 kts | 160° |
| 2026-05-07 16:47 | 39.44957 | 25.27868 | 37117 ft | 468 kts | 160° |
| 2026-05-07 16:47 | 39.38931 | 25.31079 | 37113 ft | 468 kts | 160° |
| 2026-05-07 16:48 | 39.32902 | 25.34287 | 37122 ft | 469 kts | 160° |
| 2026-05-07 16:48 | 39.26867 | 25.37491 | 37114 ft | 469 kts | 160° |
| 2026-05-07 16:49 | 39.20832 | 25.40689 | 37119 ft | 469 kts | 160° |
| 2026-05-07 16:49 | 39.14790 | 25.43886 | 37115 ft | 470 kts | 160° |
| 2026-05-07 16:50 | 39.08734 | 25.47083 | 37123 ft | 470 kts | 160° |
| 2026-05-07 16:50 | 39.02681 | 25.50273 | 37120 ft | 470 kts | 160° |
| 2026-05-07 16:51 | 38.96753 | 25.53392 | 37117 ft | 471 kts | 160° |
| 2026-05-07 16:51 | 38.90691 | 25.56575 | 37115 ft | 471 kts | 161° |
| 2026-05-07 16:52 | 38.84627 | 25.59754 | 37123 ft | 471 kts | 160° |
| 2026-05-07 16:52 | 38.78556 | 25.62930 | 37120 ft | 471 kts | 161° |
| 2026-05-07 16:53 | 38.72527 | 25.66079 | 37125 ft | 471 kts | 160° |
| 2026-05-07 16:53 | 38.66456 | 25.69243 | 37119 ft | 471 kts | 161° |
| 2026-05-07 16:54 | 38.60381 | 25.72404 | 37129 ft | 471 kts | 161° |
| 2026-05-07 16:54 | 38.54302 | 25.75561 | 37124 ft | 472 kts | 161° |
| 2026-05-07 16:55 | 38.48220 | 25.78714 | 37130 ft | 472 kts | 161° |
| 2026-05-07 16:55 | 38.42132 | 25.81865 | 37128 ft | 472 kts | 161° |
| 2026-05-07 16:56 | 38.36043 | 25.85011 | 37131 ft | 472 kts | 161° |
| 2026-05-07 16:56 | 38.26910 | 25.89719 | 37132 ft | 472 kts | 161° |
| 2026-05-07 16:57 | 38.20780 | 25.92731 | 37126 ft | 472 kts | 163° |
| 2026-05-07 16:57 | 38.14588 | 25.95490 | 37130 ft | 471 kts | 164° |
| 2026-05-07 16:58 | 38.08399 | 25.98241 | 37129 ft | 472 kts | 163° |
| 2026-05-07 16:58 | 38.02206 | 26.01034 | 37128 ft | 472 kts | 163° |
| 2026-05-07 16:59 | 37.96023 | 26.03833 | 37131 ft | 472 kts | 163° |
| 2026-05-07 16:59 | 37.89834 | 26.06630 | 37131 ft | 472 kts | 163° |
| 2026-05-07 17:00 | 37.83685 | 26.09402 | 37137 ft | 472 kts | 163° |
| 2026-05-07 17:00 | 37.77506 | 26.12183 | 37135 ft | 472 kts | 163° |
| 2026-05-07 17:01 | 37.71303 | 26.14973 | 37137 ft | 472 kts | 163° |
| 2026-05-07 17:01 | 37.65109 | 26.17767 | 37136 ft | 472 kts | 163° |
| 2026-05-07 17:02 | 37.62009 | 26.19165 | 36879 ft | 477 kts | 163° |
| 2026-05-07 17:02 | 37.58854 | 26.20584 | 36329 ft | 479 kts | 163° |
| 2026-05-07 17:02 | 37.55737 | 26.21988 | 35901 ft | 474 kts | 163° |
| 2026-05-07 17:02 | 37.52641 | 26.23382 | 35485 ft | 471 kts | 163° |
| 2026-05-07 17:03 | 37.49565 | 26.24764 | 35080 ft | 467 kts | 163° |
| 2026-05-07 17:03 | 37.46522 | 26.26130 | 34672 ft | 464 kts | 163° |
| 2026-05-07 17:03 | 37.43482 | 26.27492 | 34268 ft | 461 kts | 163° |
| 2026-05-07 17:03 | 37.40466 | 26.28843 | 33830 ft | 458 kts | 163° |
| 2026-05-07 17:04 | 37.37473 | 26.30182 | 33397 ft | 455 kts | 163° |
| 2026-05-07 17:04 | 37.34495 | 26.31513 | 32986 ft | 452 kts | 163° |
| 2026-05-07 17:04 | 37.31548 | 26.32830 | 32589 ft | 449 kts | 163° |
| 2026-05-07 17:04 | 37.28614 | 26.34139 | 32200 ft | 446 kts | 163° |
| 2026-05-07 17:05 | 37.25708 | 26.35436 | 31812 ft | 443 kts | 164° |
| 2026-05-07 17:05 | 37.22810 | 26.36727 | 31443 ft | 440 kts | 163° |
| 2026-05-07 17:05 | 37.19933 | 26.38008 | 31062 ft | 437 kts | 163° |
| 2026-05-07 17:05 | 37.17069 | 26.39277 | 30604 ft | 437 kts | 163° |
| 2026-05-07 17:06 | 37.14205 | 26.40544 | 30231 ft | 435 kts | 163° |
| 2026-05-07 17:06 | 37.11358 | 26.41802 | 29787 ft | 433 kts | 163° |
| 2026-05-07 17:06 | 37.08533 | 26.43050 | 29383 ft | 429 kts | 163° |
| 2026-05-07 17:06 | 37.05730 | 26.44287 | 28975 ft | 426 kts | 163° |
| 2026-05-07 17:07 | 37.02952 | 26.45513 | 28630 ft | 421 kts | 163° |
| 2026-05-07 17:07 | 37.00208 | 26.46724 | 28354 ft | 415 kts | 163° |
| 2026-05-07 17:07 | 36.97504 | 26.47916 | 28072 ft | 409 kts | 163° |
| 2026-05-07 17:07 | 36.94829 | 26.49093 | 27731 ft | 406 kts | 163° |
| 2026-05-07 17:08 | 36.92173 | 26.50279 | 27350 ft | 404 kts | 159° |
| 2026-05-07 17:08 | 36.89766 | 26.52078 | 26965 ft | 404 kts | 139° |
| 2026-05-07 17:08 | 36.87925 | 26.54627 | 26644 ft | 399 kts | 120° |
| 2026-05-07 17:08 | 36.86699 | 26.57708 | 26303 ft | 393 kts | 109° |
| 2026-05-07 17:09 | 36.85670 | 26.60904 | 25941 ft | 391 kts | 109° |
| 2026-05-07 17:09 | 36.84649 | 26.64046 | 25580 ft | 390 kts | 109° |
| 2026-05-07 17:09 | 36.83613 | 26.67122 | 25229 ft | 389 kts | 110° |
| 2026-05-07 17:09 | 36.82537 | 26.70261 | 24859 ft | 388 kts | 110° |
| 2026-05-07 17:10 | 36.81471 | 26.73358 | 24468 ft | 388 kts | 110° |
| 2026-05-07 17:10 | 36.80407 | 26.76448 | 24116 ft | 387 kts | 110° |
| 2026-05-07 17:10 | 36.79360 | 26.79486 | 23763 ft | 386 kts | 110° |
| 2026-05-07 17:10 | 36.78301 | 26.82562 | 23360 ft | 385 kts | 110° |
| 2026-05-07 17:11 | 36.77247 | 26.85618 | 22968 ft | 383 kts | 110° |
| 2026-05-07 17:11 | 36.76201 | 26.88651 | 22604 ft | 380 kts | 110° |
| 2026-05-07 17:11 | 36.75157 | 26.91676 | 22246 ft | 378 kts | 110° |
| 2026-05-07 17:11 | 36.74121 | 26.94673 | 21899 ft | 375 kts | 110° |
| 2026-05-07 17:12 | 36.73092 | 26.97649 | 21562 ft | 373 kts | 110° |
| 2026-05-07 17:12 | 36.72067 | 27.00610 | 21210 ft | 371 kts | 110° |
| 2026-05-07 17:12 | 36.71048 | 27.03551 | 20865 ft | 368 kts | 110° |
| 2026-05-07 17:12 | 36.70033 | 27.06481 | 20527 ft | 366 kts | 111° |
| 2026-05-07 17:13 | 36.69025 | 27.09383 | 20189 ft | 364 kts | 111° |
| 2026-05-07 17:13 | 36.68020 | 27.12275 | 19853 ft | 363 kts | 111° |
| 2026-05-07 17:13 | 36.67017 | 27.15153 | 19510 ft | 361 kts | 111° |
| 2026-05-07 17:13 | 36.66018 | 27.18012 | 19182 ft | 359 kts | 111° |
| 2026-05-07 17:14 | 36.65022 | 27.20858 | 18844 ft | 358 kts | 111° |
| 2026-05-07 17:14 | 36.64031 | 27.23690 | 18510 ft | 356 kts | 111° |
| 2026-05-07 17:14 | 36.63041 | 27.26515 | 18123 ft | 355 kts | 111° |
| 2026-05-07 17:14 | 36.62055 | 27.29327 | 17754 ft | 353 kts | 111° |
| 2026-05-07 17:15 | 36.61075 | 27.32119 | 17404 ft | 351 kts | 111° |
| 2026-05-07 17:15 | 36.60099 | 27.34897 | 17060 ft | 349 kts | 111° |
| 2026-05-07 17:15 | 36.59130 | 27.37654 | 16722 ft | 347 kts | 111° |
| 2026-05-07 17:15 | 36.58166 | 27.40395 | 16387 ft | 345 kts | 111° |
| 2026-05-07 17:16 | 36.57210 | 27.43111 | 16051 ft | 343 kts | 111° |
| 2026-05-07 17:16 | 36.56255 | 27.45820 | 15730 ft | 341 kts | 111° |
| 2026-05-07 17:16 | 36.55304 | 27.48517 | 15402 ft | 339 kts | 111° |
| 2026-05-07 17:16 | 36.54373 | 27.51157 | 15079 ft | 337 kts | 111° |
| 2026-05-07 17:17 | 36.53433 | 27.53818 | 14754 ft | 336 kts | 111° |
| 2026-05-07 17:17 | 36.52494 | 27.56472 | 14426 ft | 334 kts | 111° |
| 2026-05-07 17:17 | 36.52067 | 27.57680 | 14280 ft | 334 kts | 111° |
| 2026-05-07 17:18 | 36.51134 | 27.60318 | 13945 ft | 333 kts | 111° |
| 2026-05-07 17:18 | 36.50202 | 27.62949 | 13584 ft | 331 kts | 111° |
| 2026-05-07 17:18 | 36.49275 | 27.65563 | 13235 ft | 330 kts | 111° |
| 2026-05-07 17:18 | 36.48354 | 27.68162 | 12890 ft | 328 kts | 111° |
| 2026-05-07 17:19 | 36.47435 | 27.70745 | 12555 ft | 326 kts | 111° |
| 2026-05-07 17:19 | 36.46521 | 27.73315 | 12222 ft | 324 kts | 111° |
| 2026-05-07 17:19 | 36.45610 | 27.75866 | 11878 ft | 322 kts | 111° |
| 2026-05-07 17:19 | 36.44711 | 27.78376 | 11543 ft | 317 kts | 111° |
| 2026-05-07 17:20 | 36.43817 | 27.80868 | 11206 ft | 311 kts | 111° |
| 2026-05-07 17:20 | 36.42943 | 27.83305 | 10896 ft | 305 kts | 111° |
| 2026-05-07 17:20 | 36.42088 | 27.85687 | 10586 ft | 299 kts | 111° |
| 2026-05-07 17:20 | 36.41251 | 27.88020 | 10298 ft | 294 kts | 111° |
| 2026-05-07 17:21 | 36.40434 | 27.90293 | 10164 ft | 282 kts | 111° |
| 2026-05-07 17:21 | 36.39644 | 27.92491 | 9877 ft | 277 kts | 111° |
| 2026-05-07 17:21 | 36.38868 | 27.94651 | 9590 ft | 271 kts | 111° |
| 2026-05-07 17:21 | 36.38107 | 27.96770 | 9311 ft | 266 kts | 111° |
| 2026-05-07 17:22 | 36.37356 | 27.98857 | 9051 ft | 264 kts | 111° |
| 2026-05-07 17:22 | 36.36605 | 28.00947 | 8791 ft | 267 kts | 111° |
| 2026-05-07 17:22 | 36.35838 | 28.03076 | 8530 ft | 274 kts | 111° |
| 2026-05-07 17:22 | 36.35054 | 28.05249 | 8246 ft | 278 kts | 111° |
| 2026-05-07 17:23 | 36.34379 | 28.07462 | 7925 ft | 270 kts | 96° |
| 2026-05-07 17:23 | 36.34493 | 28.09734 | 7665 ft | 264 kts | 71° |
| 2026-05-07 17:23 | 36.35148 | 28.11849 | 7400 ft | 262 kts | 65° |
| 2026-05-07 17:23 | 36.35872 | 28.13922 | 7113 ft | 262 kts | 64° |
| 2026-05-07 17:24 | 36.36599 | 28.15997 | 6826 ft | 262 kts | 64° |
| 2026-05-07 17:24 | 36.37317 | 28.18069 | 6469 ft | 261 kts | 65° |
| 2026-05-07 17:24 | 36.38017 | 28.20113 | 6283 ft | 249 kts | 65° |
| 2026-05-07 17:24 | 36.38661 | 28.22014 | 6138 ft | 230 kts | 65° |
| 2026-05-07 17:25 | 36.39257 | 28.23774 | 6008 ft | 213 kts | 65° |
| 2026-05-07 17:25 | 36.39809 | 28.25411 | 5869 ft | 198 kts | 64° |
| 2026-05-07 17:25 | 36.40327 | 28.26944 | 5793 ft | 190 kts | 64° |
| 2026-05-07 17:25 | 36.40856 | 28.28471 | 5745 ft | 196 kts | 64° |
| 2026-05-07 17:26 | 36.41411 | 28.30055 | 5598 ft | 204 kts | 64° |
| 2026-05-07 17:26 | 36.41970 | 28.31657 | 5385 ft | 205 kts | 64° |
| 2026-05-07 17:26 | 36.42538 | 28.33288 | 5177 ft | 205 kts | 64° |
| 2026-05-07 17:26 | 36.43097 | 28.34897 | 4971 ft | 200 kts | 64° |
| 2026-05-07 17:27 | 36.43637 | 28.36451 | 4761 ft | 193 kts | 64° |
| 2026-05-07 17:27 | 36.44364 | 28.37779 | 4525 ft | 182 kts | 36° |
| 2026-05-07 17:27 | 36.45474 | 28.38371 | 4373 ft | 172 kts | 5° |
| 2026-05-07 17:27 | 36.46641 | 28.38205 | 4196 ft | 171 kts | 338° |
| 2026-05-07 17:28 | 36.47598 | 28.37342 | 4020 ft | 173 kts | 309° |
| 2026-05-07 17:28 | 36.48086 | 28.35970 | 3840 ft | 177 kts | 281° |
| 2026-05-07 17:28 | 36.47987 | 28.34442 | 3645 ft | 180 kts | 255° |
| 2026-05-07 17:28 | 36.47587 | 28.32981 | 3454 ft | 177 kts | 255° |
| 2026-05-07 17:29 | 36.47201 | 28.31547 | 3245 ft | 173 kts | 255° |
| 2026-05-07 17:29 | 36.46814 | 28.30145 | 3058 ft | 171 kts | 254° |
| 2026-05-07 17:29 | 36.46410 | 28.28751 | 2886 ft | 172 kts | 252° |
| 2026-05-07 17:29 | 36.46008 | 28.27375 | 2759 ft | 167 kts | 254° |
| 2026-05-07 17:30 | 36.45757 | 28.26486 | 2605 ft | 162 kts | 255° |
| 2026-05-07 17:30 | 36.45388 | 28.25191 | 2407 ft | 158 kts | 255° |
| 2026-05-07 17:30 | 36.45021 | 28.23911 | 2209 ft | 157 kts | 254° |
| 2026-05-07 17:30 | 36.44653 | 28.22635 | 2019 ft | 157 kts | 254° |
| 2026-05-07 17:31 | 36.44284 | 28.21361 | 1821 ft | 156 kts | 254° |
| 2026-05-07 17:31 | 36.43919 | 28.20106 | 1653 ft | 151 kts | 253° |
| 2026-05-07 17:31 | 36.43570 | 28.18905 | 1420 ft | 145 kts | 253° |
| 2026-05-07 17:31 | 36.43227 | 28.17726 | 1247 ft | 146 kts | 253° |
| 2026-05-07 17:32 | 36.42881 | 28.16537 | 1065 ft | 147 kts | 253° |
| 2026-05-07 17:32 | 36.42539 | 28.15358 | 870 ft | 144 kts | 251° |
| 2026-05-07 17:32 | 36.42206 | 28.14197 | 691 ft | 143 kts | 251° |
| 2026-05-07 17:32 | 36.41846 | 28.13045 | 543 ft | 144 kts | 249° |
| 2026-05-07 17:33 | 36.41508 | 28.11872 | 328 ft | 143 kts | 249° |
| 2026-05-07 17:33 | 36.41156 | 28.10735 | 120 ft | 139 kts | 249° |
| 2026-05-07 17:33 | 36.40833 | 28.09630 | 29 ft | 129 kts | 249° |
| 2026-05-07 17:33 | 36.40567 | 28.08716 | 28 ft | 96 kts | 251° |
| 2026-05-07 17:34 | 36.40378 | 28.08078 | 28 ft | 62 kts | 250° |
| 2026-05-07 17:34 | 36.40271 | 28.07714 | 27 ft | 28 kts | 250° |
| 2026-05-07 17:34 | 36.40221 | 28.07598 | 30 ft | 9 kts | 211° |
| 2026-05-07 17:34 | 36.40160 | 28.07612 | 26 ft | 9 kts | 163° |
| 2026-05-07 17:35 | 36.40100 | 28.07638 | 27 ft | 9 kts | 150° |
| 2026-05-07 17:35 | 36.40088 | 28.07707 | 27 ft | 9 kts | 69° |
| 2026-05-07 17:35 | 36.40110 | 28.07779 | 27 ft | 9 kts | 70° |
| 2026-05-07 17:35 | 36.40132 | 28.07855 | 27 ft | 11 kts | 70° |
| 2026-05-07 17:36 | 36.40170 | 28.07986 | 27 ft | 22 kts | 70° |
| 2026-05-07 17:36 | 36.40224 | 28.08173 | 27 ft | 23 kts | 70° |
| 2026-05-07 17:36 | 36.40278 | 28.08356 | 27 ft | 22 kts | 70° |
| 2026-05-07 17:36 | 36.40331 | 28.08534 | 27 ft | 22 kts | 70° |
| 2026-05-07 17:37 | 36.40382 | 28.08706 | 27 ft | 21 kts | 70° |
| 2026-05-07 17:37 | 36.40399 | 28.08879 | 27 ft | 16 kts | 95° |
| 2026-05-07 17:37 | 36.40396 | 28.08992 | 27 ft | 4 kts | 111° |
| 2026-05-07 17:37 | 36.40365 | 28.09014 | 27 ft | 6 kts | 159° |
| 2026-05-07 17:38 | 36.40335 | 28.09028 | 27 ft | 0 kts | 160° |